sensor_id;sensor_type;location;lat;lon;timestamp;temperature;humidity
10354;DHT22;5223;50.924;13.338;2022-07-23T00:01:21;18.40;99.90
10354;DHT22;5223;50.924;13.338;2022-07-23T00:03:48;18.30;99.90
10354;DHT22;5223;50.924;13.338;2022-07-23T00:06:15;18.30;99.90
10354;DHT22;5223;50.924;13.338;2022-07-23T00:08:42;18.30;99.90
10354;DHT22;5223;50.924;13.338;2022-07-23T00:11:09;18.20;99.90
10354;DHT22;5223;50.924;13.338;2022-07-23T00:13:36;18.20;99.90
10354;DHT22;5223;50.924;13.338;2022-07-23T00:16:03;18.20;99.90
10354;DHT22;5223;50.924;13.338;2022-07-23T00:18:31;18.10;99.90
10354;DHT22;5223;50.924;13.338;2022-07-23T00:20:58;18.00;99.90
10354;DHT22;5223;50.924;13.338;2022-07-23T00:23:25;18.00;99.90
10354;DHT22;5223;50.924;13.338;2022-07-23T00:25:53;17.90;99.90
10354;DHT22;5223;50.924;13.338;2022-07-23T00:28:19;17.80;99.90
10354;DHT22;5223;50.924;13.338;2022-07-23T00:30:46;17.70;99.90
10354;DHT22;5223;50.924;13.338;2022-07-23T00:33:13;17.80;99.90
10354;DHT22;5223;50.924;13.338;2022-07-23T00:35:42;17.80;99.90
10354;DHT22;5223;50.924;13.338;2022-07-23T00:38:09;17.80;99.90
10354;DHT22;5223;50.924;13.338;2022-07-23T00:40:37;17.80;99.90
10354;DHT22;5223;50.924;13.338;2022-07-23T00:43:05;17.80;99.90
10354;DHT22;5223;50.924;13.338;2022-07-23T00:45:32;17.90;99.90
10354;DHT22;5223;50.924;13.338;2022-07-23T00:48:01;18.00;99.90
10354;DHT22;5223;50.924;13.338;2022-07-23T00:50:28;18.00;99.90
10354;DHT22;5223;50.924;13.338;2022-07-23T00:52:57;18.20;99.90
10354;DHT22;5223;50.924;13.338;2022-07-23T00:55:24;18.10;99.90
10354;DHT22;5223;50.924;13.338;2022-07-23T00:57:51;18.00;99.90
10354;DHT22;5223;50.924;13.338;2022-07-23T01:00:20;18.00;99.90
10354;DHT22;5223;50.924;13.338;2022-07-23T01:02:46;18.00;99.90
10354;DHT22;5223;50.924;13.338;2022-07-23T01:05:13;17.90;99.90
10354;DHT22;5223;50.924;13.338;2022-07-23T01:07:40;17.90;99.90
10354;DHT22;5223;50.924;13.338;2022-07-23T01:10:09;17.90;99.90
10354;DHT22;5223;50.924;13.338;2022-07-23T01:12:50;17.80;99.90
10354;DHT22;5223;50.924;13.338;2022-07-23T01:15:17;17.80;99.90
10354;DHT22;5223;50.924;13.338;2022-07-23T01:17:44;17.80;99.90
10354;DHT22;5223;50.924;13.338;2022-07-23T01:20:11;17.70;99.90
10354;DHT22;5223;50.924;13.338;2022-07-23T01:22:39;17.70;99.90
10354;DHT22;5223;50.924;13.338;2022-07-23T01:25:08;17.60;99.90
10354;DHT22;5223;50.924;13.338;2022-07-23T01:27:35;17.60;99.90
10354;DHT22;5223;50.924;13.338;2022-07-23T01:30:03;17.60;99.90
10354;DHT22;5223;50.924;13.338;2022-07-23T01:32:30;17.70;99.90
10354;DHT22;5223;50.924;13.338;2022-07-23T01:34:57;17.80;99.90
10354;DHT22;5223;50.924;13.338;2022-07-23T01:37:24;17.70;99.90
10354;DHT22;5223;50.924;13.338;2022-07-23T01:39:52;17.60;99.90
10354;DHT22;5223;50.924;13.338;2022-07-23T01:42:19;17.60;99.90
10354;DHT22;5223;50.924;13.338;2022-07-23T01:44:46;17.60;99.90
10354;DHT22;5223;50.924;13.338;2022-07-23T01:47:13;17.50;99.90
10354;DHT22;5223;50.924;13.338;2022-07-23T01:49:40;17.40;99.90
10354;DHT22;5223;50.924;13.338;2022-07-23T01:52:07;17.40;99.90
10354;DHT22;5223;50.924;13.338;2022-07-23T01:54:37;17.40;99.90
10354;DHT22;5223;50.924;13.338;2022-07-23T01:57:07;17.40;99.90
10354;DHT22;5223;50.924;13.338;2022-07-23T01:59:34;17.30;99.90
10354;DHT22;5223;50.924;13.338;2022-07-23T02:02:03;17.30;99.90
10354;DHT22;5223;50.924;13.338;2022-07-23T02:04:31;17.20;99.90
10354;DHT22;5223;50.924;13.338;2022-07-23T02:07:00;17.20;99.90
10354;DHT22;5223;50.924;13.338;2022-07-23T02:09:27;17.20;99.90
10354;DHT22;5223;50.924;13.338;2022-07-23T02:11:54;17.30;99.90
10354;DHT22;5223;50.924;13.338;2022-07-23T02:14:23;17.20;99.90
10354;DHT22;5223;50.924;13.338;2022-07-23T02:16:49;17.30;99.90
10354;DHT22;5223;50.924;13.338;2022-07-23T02:19:16;17.20;99.90
10354;DHT22;5223;50.924;13.338;2022-07-23T02:21:44;17.20;99.90
10354;DHT22;5223;50.924;13.338;2022-07-23T02:24:11;17.30;99.90
10354;DHT22;5223;50.924;13.338;2022-07-23T02:26:38;17.20;99.90
10354;DHT22;5223;50.924;13.338;2022-07-23T02:29:05;17.30;99.90
10354;DHT22;5223;50.924;13.338;2022-07-23T02:31:33;17.30;99.90
10354;DHT22;5223;50.924;13.338;2022-07-23T02:34:01;17.30;99.90
10354;DHT22;5223;50.924;13.338;2022-07-23T02:36:28;17.30;99.90
10354;DHT22;5223;50.924;13.338;2022-07-23T02:38:55;17.30;99.90
10354;DHT22;5223;50.924;13.338;2022-07-23T02:41:22;17.30;99.90
10354;DHT22;5223;50.924;13.338;2022-07-23T02:43:50;17.30;99.90
10354;DHT22;5223;50.924;13.338;2022-07-23T02:46:17;17.20;99.90
10354;DHT22;5223;50.924;13.338;2022-07-23T02:48:45;17.20;99.90
10354;DHT22;5223;50.924;13.338;2022-07-23T02:51:12;17.10;99.90
10354;DHT22;5223;50.924;13.338;2022-07-23T02:53:39;17.10;99.90
10354;DHT22;5223;50.924;13.338;2022-07-23T02:56:06;17.10;99.90
10354;DHT22;5223;50.924;13.338;2022-07-23T02:58:33;17.10;99.90
10354;DHT22;5223;50.924;13.338;2022-07-23T03:01:00;17.10;99.90
10354;DHT22;5223;50.924;13.338;2022-07-23T03:03:27;17.10;99.90
10354;DHT22;5223;50.924;13.338;2022-07-23T03:05:55;17.10;99.90
10354;DHT22;5223;50.924;13.338;2022-07-23T03:08:22;17.20;99.90
10354;DHT22;5223;50.924;13.338;2022-07-23T03:10:51;17.20;99.90
10354;DHT22;5223;50.924;13.338;2022-07-23T03:13:18;17.20;99.90
10354;DHT22;5223;50.924;13.338;2022-07-23T03:15:45;17.30;99.90
10354;DHT22;5223;50.924;13.338;2022-07-23T03:18:11;17.30;99.90
10354;DHT22;5223;50.924;13.338;2022-07-23T03:20:38;17.40;99.90
10354;DHT22;5223;50.924;13.338;2022-07-23T03:23:06;17.40;99.90
10354;DHT22;5223;50.924;13.338;2022-07-23T03:25:33;17.50;99.90
10354;DHT22;5223;50.924;13.338;2022-07-23T03:28:00;17.50;99.90
10354;DHT22;5223;50.924;13.338;2022-07-23T03:30:27;17.50;99.90
10354;DHT22;5223;50.924;13.338;2022-07-23T03:32:54;17.50;99.90
10354;DHT22;5223;50.924;13.338;2022-07-23T03:35:21;17.50;99.90
10354;DHT22;5223;50.924;13.338;2022-07-23T03:37:48;17.50;99.90
10354;DHT22;5223;50.924;13.338;2022-07-23T03:40:16;17.60;99.90
10354;DHT22;5223;50.924;13.338;2022-07-23T03:42:43;17.60;99.90
10354;DHT22;5223;50.924;13.338;2022-07-23T03:45:11;17.60;99.90
10354;DHT22;5223;50.924;13.338;2022-07-23T03:47:38;17.60;99.90
10354;DHT22;5223;50.924;13.338;2022-07-23T03:50:07;17.50;99.90
10354;DHT22;5223;50.924;13.338;2022-07-23T03:52:37;17.50;99.90
10354;DHT22;5223;50.924;13.338;2022-07-23T03:55:04;17.50;99.90
10354;DHT22;5223;50.924;13.338;2022-07-23T03:57:33;17.50;99.90
10354;DHT22;5223;50.924;13.338;2022-07-23T03:59:59;17.40;99.90
10354;DHT22;5223;50.924;13.338;2022-07-23T04:02:26;17.40;99.90
10354;DHT22;5223;50.924;13.338;2022-07-23T04:04:54;17.40;99.90
10354;DHT22;5223;50.924;13.338;2022-07-23T04:07:21;17.50;99.90
10354;DHT22;5223;50.924;13.338;2022-07-23T04:09:47;17.60;99.90
10354;DHT22;5223;50.924;13.338;2022-07-23T04:12:15;17.50;99.90
10354;DHT22;5223;50.924;13.338;2022-07-23T04:14:43;17.40;99.90
10354;DHT22;5223;50.924;13.338;2022-07-23T04:17:10;17.40;99.90
10354;DHT22;5223;50.924;13.338;2022-07-23T04:19:37;17.40;99.90
10354;DHT22;5223;50.924;13.338;2022-07-23T04:22:06;17.40;99.90
10354;DHT22;5223;50.924;13.338;2022-07-23T04:24:36;17.40;99.90
10354;DHT22;5223;50.924;13.338;2022-07-23T04:27:04;17.40;99.90
10354;DHT22;5223;50.924;13.338;2022-07-23T04:29:30;17.30;99.90
10354;DHT22;5223;50.924;13.338;2022-07-23T04:31:59;17.30;99.90
10354;DHT22;5223;50.924;13.338;2022-07-23T04:34:26;17.30;99.90
10354;DHT22;5223;50.924;13.338;2022-07-23T04:36:53;17.50;99.90
10354;DHT22;5223;50.924;13.338;2022-07-23T04:39:20;17.50;99.90
10354;DHT22;5223;50.924;13.338;2022-07-23T04:41:47;17.50;99.90
10354;DHT22;5223;50.924;13.338;2022-07-23T04:44:14;17.50;99.90
10354;DHT22;5223;50.924;13.338;2022-07-23T04:46:41;17.50;99.90
10354;DHT22;5223;50.924;13.338;2022-07-23T04:49:09;17.50;99.90
10354;DHT22;5223;50.924;13.338;2022-07-23T04:51:36;17.50;99.90
10354;DHT22;5223;50.924;13.338;2022-07-23T04:54:03;17.50;99.90
10354;DHT22;5223;50.924;13.338;2022-07-23T04:56:30;17.60;99.90
10354;DHT22;5223;50.924;13.338;2022-07-23T04:58:57;17.60;99.90
10354;DHT22;5223;50.924;13.338;2022-07-23T05:01:24;17.50;99.90
10354;DHT22;5223;50.924;13.338;2022-07-23T05:03:50;17.50;99.90
10354;DHT22;5223;50.924;13.338;2022-07-23T05:06:18;17.60;99.90
10354;DHT22;5223;50.924;13.338;2022-07-23T05:08:45;17.70;99.90
10354;DHT22;5223;50.924;13.338;2022-07-23T05:11:12;17.80;99.90
10354;DHT22;5223;50.924;13.338;2022-07-23T05:13:39;17.80;99.90
10354;DHT22;5223;50.924;13.338;2022-07-23T05:16:06;17.90;99.90
10354;DHT22;5223;50.924;13.338;2022-07-23T05:18:33;18.00;99.90
10354;DHT22;5223;50.924;13.338;2022-07-23T05:21:00;18.00;99.90
10354;DHT22;5223;50.924;13.338;2022-07-23T05:23:28;17.90;99.90
10354;DHT22;5223;50.924;13.338;2022-07-23T05:25:55;17.90;99.90
10354;DHT22;5223;50.924;13.338;2022-07-23T05:28:25;17.80;99.90
10354;DHT22;5223;50.924;13.338;2022-07-23T05:30:58;17.80;99.90
10354;DHT22;5223;50.924;13.338;2022-07-23T05:33:27;17.80;99.90
10354;DHT22;5223;50.924;13.338;2022-07-23T05:36:00;17.80;99.90
10354;DHT22;5223;50.924;13.338;2022-07-23T05:38:28;17.90;99.90
10354;DHT22;5223;50.924;13.338;2022-07-23T05:40:55;17.80;99.90
10354;DHT22;5223;50.924;13.338;2022-07-23T05:43:22;17.80;99.90
10354;DHT22;5223;50.924;13.338;2022-07-23T05:45:49;17.80;99.90
10354;DHT22;5223;50.924;13.338;2022-07-23T05:48:16;17.80;99.90
10354;DHT22;5223;50.924;13.338;2022-07-23T05:50:43;17.70;99.90
10354;DHT22;5223;50.924;13.338;2022-07-23T05:53:10;17.80;99.90
10354;DHT22;5223;50.924;13.338;2022-07-23T05:55:38;17.90;99.90
10354;DHT22;5223;50.924;13.338;2022-07-23T05:58:05;17.90;99.90
10354;DHT22;5223;50.924;13.338;2022-07-23T06:00:32;17.80;99.90
10354;DHT22;5223;50.924;13.338;2022-07-23T06:02:59;17.90;99.90
10354;DHT22;5223;50.924;13.338;2022-07-23T06:05:26;17.80;99.90
10354;DHT22;5223;50.924;13.338;2022-07-23T06:07:53;17.70;99.90
10354;DHT22;5223;50.924;13.338;2022-07-23T06:10:20;17.70;99.90
10354;DHT22;5223;50.924;13.338;2022-07-23T06:12:48;17.60;99.90
10354;DHT22;5223;50.924;13.338;2022-07-23T06:15:15;17.60;99.90
10354;DHT22;5223;50.924;13.338;2022-07-23T06:17:42;17.50;99.90
10354;DHT22;5223;50.924;13.338;2022-07-23T06:20:10;17.60;99.90
10354;DHT22;5223;50.924;13.338;2022-07-23T06:22:37;17.80;99.90
10354;DHT22;5223;50.924;13.338;2022-07-23T06:25:05;18.00;99.90
10354;DHT22;5223;50.924;13.338;2022-07-23T06:27:32;18.00;99.90
10354;DHT22;5223;50.924;13.338;2022-07-23T06:30:00;17.80;99.90
10354;DHT22;5223;50.924;13.338;2022-07-23T06:32:27;17.80;99.90
10354;DHT22;5223;50.924;13.338;2022-07-23T06:34:54;17.90;99.90
10354;DHT22;5223;50.924;13.338;2022-07-23T06:37:21;18.10;99.90
10354;DHT22;5223;50.924;13.338;2022-07-23T06:39:48;18.30;99.90
10354;DHT22;5223;50.924;13.338;2022-07-23T06:42:15;18.40;99.90
10354;DHT22;5223;50.924;13.338;2022-07-23T06:44:42;18.40;99.90
10354;DHT22;5223;50.924;13.338;2022-07-23T06:47:11;18.50;99.90
10354;DHT22;5223;50.924;13.338;2022-07-23T06:49:38;18.90;99.90
10354;DHT22;5223;50.924;13.338;2022-07-23T06:52:06;19.00;99.90
10354;DHT22;5223;50.924;13.338;2022-07-23T06:54:33;19.20;99.90
10354;DHT22;5223;50.924;13.338;2022-07-23T06:57:00;19.00;99.90
10354;DHT22;5223;50.924;13.338;2022-07-23T06:59:31;19.10;99.90
10354;DHT22;5223;50.924;13.338;2022-07-23T07:01:58;19.20;99.90
10354;DHT22;5223;50.924;13.338;2022-07-23T07:04:27;19.20;99.90
10354;DHT22;5223;50.924;13.338;2022-07-23T07:06:54;19.30;99.90
10354;DHT22;5223;50.924;13.338;2022-07-23T07:09:21;19.60;99.90
10354;DHT22;5223;50.924;13.338;2022-07-23T07:11:47;20.60;99.90
10354;DHT22;5223;50.924;13.338;2022-07-23T07:14:14;22.00;99.90
10354;DHT22;5223;50.924;13.338;2022-07-23T07:16:41;21.80;99.90
10354;DHT22;5223;50.924;13.338;2022-07-23T07:19:10;22.20;99.90
10354;DHT22;5223;50.924;13.338;2022-07-23T07:21:38;23.00;99.10
10354;DHT22;5223;50.924;13.338;2022-07-23T07:24:06;23.60;97.30
10354;DHT22;5223;50.924;13.338;2022-07-23T07:26:33;23.50;97.30
10354;DHT22;5223;50.924;13.338;2022-07-23T07:29:00;22.90;97.60
10354;DHT22;5223;50.924;13.338;2022-07-23T07:31:27;22.10;98.00
10354;DHT22;5223;50.924;13.338;2022-07-23T07:33:53;21.30;99.60
10354;DHT22;5223;50.924;13.338;2022-07-23T07:36:22;21.30;99.80
10354;DHT22;5223;50.924;13.338;2022-07-23T07:38:50;21.40;98.70
10354;DHT22;5223;50.924;13.338;2022-07-23T07:41:17;21.50;99.20
10354;DHT22;5223;50.924;13.338;2022-07-23T07:43:48;22.00;98.90
10354;DHT22;5223;50.924;13.338;2022-07-23T07:46:15;22.40;98.40
10354;DHT22;5223;50.924;13.338;2022-07-23T07:48:42;22.80;96.90
10354;DHT22;5223;50.924;13.338;2022-07-23T07:51:08;23.20;97.10
10354;DHT22;5223;50.924;13.338;2022-07-23T07:53:35;23.40;96.00
10354;DHT22;5223;50.924;13.338;2022-07-23T07:56:04;24.10;95.00
10354;DHT22;5223;50.924;13.338;2022-07-23T07:58:31;24.00;94.80
10354;DHT22;5223;50.924;13.338;2022-07-23T08:00:58;24.30;93.60
10354;DHT22;5223;50.924;13.338;2022-07-23T08:03:26;25.10;94.30
10354;DHT22;5223;50.924;13.338;2022-07-23T08:05:53;26.50;91.90
10354;DHT22;5223;50.924;13.338;2022-07-23T08:08:19;27.10;90.40
10354;DHT22;5223;50.924;13.338;2022-07-23T08:10:46;26.50;86.10
10354;DHT22;5223;50.924;13.338;2022-07-23T08:13:15;25.80;90.70
10354;DHT22;5223;50.924;13.338;2022-07-23T08:15:43;26.20;87.40
10354;DHT22;5223;50.924;13.338;2022-07-23T08:18:10;25.50;87.00
10354;DHT22;5223;50.924;13.338;2022-07-23T08:20:37;25.80;88.00
10354;DHT22;5223;50.924;13.338;2022-07-23T08:23:06;27.30;83.20
10354;DHT22;5223;50.924;13.338;2022-07-23T08:25:36;27.30;81.30
10354;DHT22;5223;50.924;13.338;2022-07-23T08:28:05;26.40;82.70
10354;DHT22;5223;50.924;13.338;2022-07-23T08:30:35;26.20;84.00
10354;DHT22;5223;50.924;13.338;2022-07-23T08:33:03;26.40;84.30
10354;DHT22;5223;50.924;13.338;2022-07-23T08:35:33;26.20;84.70
10354;DHT22;5223;50.924;13.338;2022-07-23T08:38:05;26.10;84.00
10354;DHT22;5223;50.924;13.338;2022-07-23T08:40:34;26.00;84.60
10354;DHT22;5223;50.924;13.338;2022-07-23T08:43:05;25.90;86.50
10354;DHT22;5223;50.924;13.338;2022-07-23T08:45:36;26.70;84.20
10354;DHT22;5223;50.924;13.338;2022-07-23T08:48:03;27.00;81.40
10354;DHT22;5223;50.924;13.338;2022-07-23T08:50:32;27.30;80.00
10354;DHT22;5223;50.924;13.338;2022-07-23T08:53:02;27.30;81.50
10354;DHT22;5223;50.924;13.338;2022-07-23T08:55:31;27.90;81.10
10354;DHT22;5223;50.924;13.338;2022-07-23T08:57:58;28.30;77.60
10354;DHT22;5223;50.924;13.338;2022-07-23T09:00:25;28.70;78.10
10354;DHT22;5223;50.924;13.338;2022-07-23T09:02:53;28.20;76.30
10354;DHT22;5223;50.924;13.338;2022-07-23T09:05:21;27.80;78.10
10354;DHT22;5223;50.924;13.338;2022-07-23T09:08:08;27.20;81.30
10354;DHT22;5223;50.924;13.338;2022-07-23T09:10:50;27.20;80.00
10354;DHT22;5223;50.924;13.338;2022-07-23T09:13:36;26.80;80.30
10354;DHT22;5223;50.924;13.338;2022-07-23T09:16:06;26.30;82.60
10354;DHT22;5223;50.924;13.338;2022-07-23T09:18:38;26.90;81.30
10354;DHT22;5223;50.924;13.338;2022-07-23T09:21:16;27.60;80.10
10354;DHT22;5223;50.924;13.338;2022-07-23T09:23:44;26.70;81.50
10354;DHT22;5223;50.924;13.338;2022-07-23T09:26:20;26.10;82.90
10354;DHT22;5223;50.924;13.338;2022-07-23T09:28:52;25.80;83.20
10354;DHT22;5223;50.924;13.338;2022-07-23T09:31:19;25.60;84.30
10354;DHT22;5223;50.924;13.338;2022-07-23T09:33:48;25.80;84.70
10354;DHT22;5223;50.924;13.338;2022-07-23T09:36:14;25.60;85.20
10354;DHT22;5223;50.924;13.338;2022-07-23T09:38:48;26.00;83.90
10354;DHT22;5223;50.924;13.338;2022-07-23T09:41:16;25.70;85.00
10354;DHT22;5223;50.924;13.338;2022-07-23T09:43:43;25.90;83.60
10354;DHT22;5223;50.924;13.338;2022-07-23T09:46:21;25.70;82.40
10354;DHT22;5223;50.924;13.338;2022-07-23T09:48:53;26.50;82.00
10354;DHT22;5223;50.924;13.338;2022-07-23T09:51:22;28.10;78.30
10354;DHT22;5223;50.924;13.338;2022-07-23T09:53:53;28.40;76.90
10354;DHT22;5223;50.924;13.338;2022-07-23T09:56:20;29.20;75.00
10354;DHT22;5223;50.924;13.338;2022-07-23T09:58:50;29.60;71.60
10354;DHT22;5223;50.924;13.338;2022-07-23T10:01:17;29.90;73.00
10354;DHT22;5223;50.924;13.338;2022-07-23T10:03:46;30.00;70.10
10354;DHT22;5223;50.924;13.338;2022-07-23T10:06:15;30.40;69.20
10354;DHT22;5223;50.924;13.338;2022-07-23T10:08:44;31.30;66.50
10354;DHT22;5223;50.924;13.338;2022-07-23T10:11:16;30.60;67.70
10354;DHT22;5223;50.924;13.338;2022-07-23T10:13:43;30.10;69.30
10354;DHT22;5223;50.924;13.338;2022-07-23T10:16:23;29.30;70.00
10354;DHT22;5223;50.924;13.338;2022-07-23T10:18:51;28.50;73.50
10354;DHT22;5223;50.924;13.338;2022-07-23T10:21:25;28.50;73.10
10354;DHT22;5223;50.924;13.338;2022-07-23T10:24:07;28.50;73.00
10354;DHT22;5223;50.924;13.338;2022-07-23T10:26:41;29.90;69.20
10354;DHT22;5223;50.924;13.338;2022-07-23T10:29:21;28.30;70.00
10354;DHT22;5223;50.924;13.338;2022-07-23T10:31:55;27.60;75.00
10354;DHT22;5223;50.924;13.338;2022-07-23T10:34:34;29.60;71.30
10354;DHT22;5223;50.924;13.338;2022-07-23T10:37:14;30.40;66.50
10354;DHT22;5223;50.924;13.338;2022-07-23T10:39:48;29.30;68.80
10354;DHT22;5223;50.924;13.338;2022-07-23T10:42:36;29.20;68.90
10354;DHT22;5223;50.924;13.338;2022-07-23T10:45:21;29.20;71.80
10354;DHT22;5223;50.924;13.338;2022-07-23T10:47:49;29.30;70.30
10354;DHT22;5223;50.924;13.338;2022-07-23T10:50:22;28.40;69.50
10354;DHT22;5223;50.924;13.338;2022-07-23T10:53:13;28.60;70.20
10354;DHT22;5223;50.924;13.338;2022-07-23T10:55:44;28.50;69.90
10354;DHT22;5223;50.924;13.338;2022-07-23T10:58:18;27.90;73.00
10354;DHT22;5223;50.924;13.338;2022-07-23T11:00:48;28.10;71.30
10354;DHT22;5223;50.924;13.338;2022-07-23T11:03:32;28.40;71.90
10354;DHT22;5223;50.924;13.338;2022-07-23T11:06:02;28.60;72.30
10354;DHT22;5223;50.924;13.338;2022-07-23T11:08:32;27.40;73.80
10354;DHT22;5223;50.924;13.338;2022-07-23T11:11:09;27.70;73.80
10354;DHT22;5223;50.924;13.338;2022-07-23T11:13:42;29.50;71.20
10354;DHT22;5223;50.924;13.338;2022-07-23T11:16:24;29.30;69.10
10354;DHT22;5223;50.924;13.338;2022-07-23T11:19:15;27.70;71.00
10354;DHT22;5223;50.924;13.338;2022-07-23T11:21:51;27.50;73.20
10354;DHT22;5223;50.924;13.338;2022-07-23T11:24:24;27.60;74.80
10354;DHT22;5223;50.924;13.338;2022-07-23T11:27:10;27.90;74.00
10354;DHT22;5223;50.924;13.338;2022-07-23T11:29:48;28.40;73.50
10354;DHT22;5223;50.924;13.338;2022-07-23T11:32:38;28.10;72.30
10354;DHT22;5223;50.924;13.338;2022-07-23T11:35:23;29.60;71.20
10354;DHT22;5223;50.924;13.338;2022-07-23T11:37:51;29.80;68.90
10354;DHT22;5223;50.924;13.338;2022-07-23T11:40:25;28.70;71.30
10354;DHT22;5223;50.924;13.338;2022-07-23T11:42:56;28.00;71.20
10354;DHT22;5223;50.924;13.338;2022-07-23T11:45:24;27.40;74.20
10354;DHT22;5223;50.924;13.338;2022-07-23T11:47:51;27.50;75.90
10354;DHT22;5223;50.924;13.338;2022-07-23T11:50:18;27.20;77.30
10354;DHT22;5223;50.924;13.338;2022-07-23T11:52:45;27.30;76.30
10354;DHT22;5223;50.924;13.338;2022-07-23T11:55:13;27.80;75.90
10354;DHT22;5223;50.924;13.338;2022-07-23T11:57:43;28.20;73.40
10354;DHT22;5223;50.924;13.338;2022-07-23T12:00:12;28.10;74.20
10354;DHT22;5223;50.924;13.338;2022-07-23T12:02:42;27.60;76.30
10354;DHT22;5223;50.924;13.338;2022-07-23T12:05:12;26.80;77.70
10354;DHT22;5223;50.924;13.338;2022-07-23T12:07:40;26.90;78.30
10354;DHT22;5223;50.924;13.338;2022-07-23T12:10:11;28.30;76.90
10354;DHT22;5223;50.924;13.338;2022-07-23T12:12:40;28.80;74.30
10354;DHT22;5223;50.924;13.338;2022-07-23T12:15:10;29.00;73.80
10354;DHT22;5223;50.924;13.338;2022-07-23T12:17:38;29.60;71.40
10354;DHT22;5223;50.924;13.338;2022-07-23T12:20:08;30.00;69.30
10354;DHT22;5223;50.924;13.338;2022-07-23T12:22:37;30.00;70.80
10354;DHT22;5223;50.924;13.338;2022-07-23T12:25:07;30.60;70.80
10354;DHT22;5223;50.924;13.338;2022-07-23T12:27:35;31.40;66.40
10354;DHT22;5223;50.924;13.338;2022-07-23T12:30:20;30.50;67.70
10354;DHT22;5223;50.924;13.338;2022-07-23T12:32:49;29.60;70.90
10354;DHT22;5223;50.924;13.338;2022-07-23T12:35:18;30.50;67.80
10354;DHT22;5223;50.924;13.338;2022-07-23T12:37:47;31.70;65.90
10354;DHT22;5223;50.924;13.338;2022-07-23T12:40:29;30.30;71.10
10354;DHT22;5223;50.924;13.338;2022-07-23T12:42:58;29.40;70.90
10354;DHT22;5223;50.924;13.338;2022-07-23T12:45:28;30.30;70.30
10354;DHT22;5223;50.924;13.338;2022-07-23T12:48:08;31.40;68.50
10354;DHT22;5223;50.924;13.338;2022-07-23T12:50:44;31.60;66.20
10354;DHT22;5223;50.924;13.338;2022-07-23T12:53:16;30.00;69.60
10354;DHT22;5223;50.924;13.338;2022-07-23T12:55:45;29.10;71.60
10354;DHT22;5223;50.924;13.338;2022-07-23T12:58:14;28.50;73.60
10354;DHT22;5223;50.924;13.338;2022-07-23T13:00:55;27.30;76.00
10354;DHT22;5223;50.924;13.338;2022-07-23T13:03:27;27.20;77.00
10354;DHT22;5223;50.924;13.338;2022-07-23T13:05:55;26.60;77.80
10354;DHT22;5223;50.924;13.338;2022-07-23T13:08:23;26.40;79.30
10354;DHT22;5223;50.924;13.338;2022-07-23T13:10:50;26.30;79.80
10354;DHT22;5223;50.924;13.338;2022-07-23T13:13:24;26.90;79.60
10354;DHT22;5223;50.924;13.338;2022-07-23T13:15:53;27.30;77.60
10354;DHT22;5223;50.924;13.338;2022-07-23T13:18:20;27.30;77.90
10354;DHT22;5223;50.924;13.338;2022-07-23T13:20:50;26.80;78.70
10354;DHT22;5223;50.924;13.338;2022-07-23T13:23:18;27.70;77.20
10354;DHT22;5223;50.924;13.338;2022-07-23T13:25:45;27.40;76.00
10354;DHT22;5223;50.924;13.338;2022-07-23T13:28:15;26.60;78.30
10354;DHT22;5223;50.924;13.338;2022-07-23T13:30:44;26.60;79.50
10354;DHT22;5223;50.924;13.338;2022-07-23T13:33:13;26.70;79.20
10354;DHT22;5223;50.924;13.338;2022-07-23T13:35:40;26.70;80.20
10354;DHT22;5223;50.924;13.338;2022-07-23T13:38:06;27.20;78.00
10354;DHT22;5223;50.924;13.338;2022-07-23T13:40:38;27.00;78.10
10354;DHT22;5223;50.924;13.338;2022-07-23T13:43:05;26.80;80.10
10354;DHT22;5223;50.924;13.338;2022-07-23T13:45:32;26.70;79.80
10354;DHT22;5223;50.924;13.338;2022-07-23T13:47:59;26.30;81.60
10354;DHT22;5223;50.924;13.338;2022-07-23T13:50:27;26.40;81.20
10354;DHT22;5223;50.924;13.338;2022-07-23T13:52:54;25.70;81.10
10354;DHT22;5223;50.924;13.338;2022-07-23T13:55:21;25.20;83.90
10354;DHT22;5223;50.924;13.338;2022-07-23T13:57:48;25.40;84.70
10354;DHT22;5223;50.924;13.338;2022-07-23T14:00:16;25.20;84.80
10354;DHT22;5223;50.924;13.338;2022-07-23T14:02:43;25.10;84.40
10354;DHT22;5223;50.924;13.338;2022-07-23T14:05:10;24.70;86.40
10354;DHT22;5223;50.924;13.338;2022-07-23T14:07:39;25.10;86.10
10354;DHT22;5223;50.924;13.338;2022-07-23T14:10:08;25.20;85.30
10354;DHT22;5223;50.924;13.338;2022-07-23T14:12:35;25.40;84.50
10354;DHT22;5223;50.924;13.338;2022-07-23T14:15:03;25.10;84.70
10354;DHT22;5223;50.924;13.338;2022-07-23T14:17:30;25.00;86.40
10354;DHT22;5223;50.924;13.338;2022-07-23T14:19:58;24.80;86.60
10354;DHT22;5223;50.924;13.338;2022-07-23T14:22:25;25.30;85.60
10354;DHT22;5223;50.924;13.338;2022-07-23T14:24:54;25.60;84.50
10354;DHT22;5223;50.924;13.338;2022-07-23T14:27:26;26.80;82.60
10354;DHT22;5223;50.924;13.338;2022-07-23T14:29:53;26.70;81.50
10354;DHT22;5223;50.924;13.338;2022-07-23T14:32:20;26.60;80.80
10354;DHT22;5223;50.924;13.338;2022-07-23T14:34:47;26.60;78.70
10354;DHT22;5223;50.924;13.338;2022-07-23T14:37:15;26.10;82.20
10354;DHT22;5223;50.924;13.338;2022-07-23T14:39:42;25.60;83.90
10354;DHT22;5223;50.924;13.338;2022-07-23T14:42:11;25.50;84.10
10354;DHT22;5223;50.924;13.338;2022-07-23T14:44:38;25.10;84.80
10354;DHT22;5223;50.924;13.338;2022-07-23T14:47:06;24.80;85.30
10354;DHT22;5223;50.924;13.338;2022-07-23T14:49:32;25.10;86.30
10354;DHT22;5223;50.924;13.338;2022-07-23T14:52:00;25.70;85.00
10354;DHT22;5223;50.924;13.338;2022-07-23T14:54:28;26.10;82.80
10354;DHT22;5223;50.924;13.338;2022-07-23T14:56:55;25.70;83.30
10354;DHT22;5223;50.924;13.338;2022-07-23T14:59:24;26.00;84.30
10354;DHT22;5223;50.924;13.338;2022-07-23T15:01:51;25.70;83.90
10354;DHT22;5223;50.924;13.338;2022-07-23T15:04:18;25.80;83.20
10354;DHT22;5223;50.924;13.338;2022-07-23T15:06:45;25.20;84.60
10354;DHT22;5223;50.924;13.338;2022-07-23T15:09:12;25.20;84.10
10354;DHT22;5223;50.924;13.338;2022-07-23T15:11:40;25.40;84.90
10354;DHT22;5223;50.924;13.338;2022-07-23T15:14:07;25.70;85.00
10354;DHT22;5223;50.924;13.338;2022-07-23T15:16:36;26.20;82.70
10354;DHT22;5223;50.924;13.338;2022-07-23T15:19:04;27.30;80.70
10354;DHT22;5223;50.924;13.338;2022-07-23T15:21:31;27.60;78.20
10354;DHT22;5223;50.924;13.338;2022-07-23T15:23:58;27.70;77.10
10354;DHT22;5223;50.924;13.338;2022-07-23T15:26:26;27.40;76.50
10354;DHT22;5223;50.924;13.338;2022-07-23T15:28:53;27.10;78.20
10354;DHT22;5223;50.924;13.338;2022-07-23T15:31:26;27.30;78.00
10354;DHT22;5223;50.924;13.338;2022-07-23T15:33:54;27.20;77.80
10354;DHT22;5223;50.924;13.338;2022-07-23T15:36:21;27.00;79.00
10354;DHT22;5223;50.924;13.338;2022-07-23T15:38:48;27.30;76.40
10354;DHT22;5223;50.924;13.338;2022-07-23T15:41:15;27.10;77.30